Weather at Rishon Lezion Airfield

Public forecast

Using degrees Celsius for public forecast. Weather courtesy of forecast.io.

Closest aviation weather report (METAR) to Rishon Lezion Airfield

Closest report is Ben Gurion International Airport, 7.3 nm (13.5 km) ENE.

2024/05/30 16:20 (retrieved 36 minutes ago)

LLBG 301620Z 31009KT 9999 FEW030 23/16 Q1014 NOSIG

Closest aviation forecast (TAF) to Rishon Lezion Airfield

Closest forecast is Ben Gurion International Airport, 7.3 nm (13.5 km) ENE.

2024/05/30 12:06 (retrieved 5 hours ago)

TAF TAF LLBG 301100Z 3012/3112 30012KT 9999 FEW035 BECMG 3015/3017 36005KT FEW020 BECMG 3019/3021 VRB03KT PROB30 3100/3105 15005KT BKN015 BECMG 3107/3109 29010KT CAVOK TX26/3012Z TN18/3103Z